Portada
METAR-TAF:

METAR-TAF

Aeropuertos :

Tenerife, España

Aeropuerto de Tenerife Norte

latitud: 28-28N, longitud: 016-19W, altitud: 632 m

Observación

El informe se hizo hace 18 minutos, a las 18:00 UTC
Viento 10 kt del norte, variando entre noroeste y norte
Temperatura 17°C
Humedad 77%
Presión 1022 hPa
Visibilidad 10 km o más
Escasas nubes a una altura de 1200 ft

METAR: GCXO 271800Z 35010KT 310V010 9999 FEW012 17/13 Q1022 NOSIG

Hora: 18:18 (18:18 UTC)

Pronóstico

El informe se hizo hace 4 horas y 18 minutos, a las 14:00 UTC
Pronóstico válido del 27 a las 15 UTC al 28 a las 15 UTC
Viento 14 kt del noroeste
Visibilidad 10 km o más
Cielo nuboso a una altura de 1200 ft
Probabilidad 30% :
Temporalmente
del 27 a las 19 UTC al 28 a las 11 UTC
Visibilidad: 2500 m
Cielo nuboso a una altura de 600 ft
niebla en bancos

TAF: GCXO 271400Z 2715/2815 32014KT 9999 BKN012 TX22/2814Z TN14/2807Z PROB30 TEMPO 2719/2811 2500 BCFG BKN006

Observaciones y pronósticos meteorológicos de más de 4000 aeropuertos (mensajes METAR y TAF).

Los puntos amarillos y rojos representan las estaciones disponibles.

Ponga el ratón en el punto deseado para ver el nombre de la estación.

Haga clic para ver las observaciones y los pronósticos meteorológicos.

Para cambiar el mapa : haga clic en los botones verdes con una cruz de color negro para hacer un zoom, en el botón verde con un guión para alejar o en las flechas verdes para mapas adyacentes.


METAR-TAF: